sensor_id;sensor_type;location;lat;lon;timestamp;pressure;altitude;pressure_sealevel;temperature;humidity
58473;BME280;44775;51.564;5.460;2023-03-15T00:02:03;100940.47;;;1.82;100.00
58473;BME280;44775;51.564;5.460;2023-03-15T00:04:29;100949.53;;;1.91;100.00
58473;BME280;44775;51.564;5.460;2023-03-15T00:06:57;100935.81;;;1.85;100.00
58473;BME280;44775;51.564;5.460;2023-03-15T00:09:23;100931.56;;;1.72;100.00
58473;BME280;44775;51.564;5.460;2023-03-15T00:11:49;100932.84;;;1.66;100.00
58473;BME280;44775;51.564;5.460;2023-03-15T00:14:14;100927.38;;;1.56;100.00
58473;BME280;44775;51.564;5.460;2023-03-15T00:16:39;100934.13;;;1.48;100.00
58473;BME280;44775;51.564;5.460;2023-03-15T00:19:07;100932.69;;;1.44;100.00
58473;BME280;44775;51.564;5.460;2023-03-15T00:21:32;100930.59;;;1.36;100.00
58473;BME280;44775;51.564;5.460;2023-03-15T00:23:58;100922.38;;;1.28;100.00
58473;BME280;44775;51.564;5.460;2023-03-15T00:26:23;100932.47;;;1.21;100.00
58473;BME280;44775;51.564;5.460;2023-03-15T00:28:49;100927.13;;;1.23;100.00
58473;BME280;44775;51.564;5.460;2023-03-15T00:31:18;100930.91;;;1.18;100.00
58473;BME280;44775;51.564;5.460;2023-03-15T00:33:43;100934.41;;;1.19;100.00
58473;BME280;44775;51.564;5.460;2023-03-15T00:36:10;100927.41;;;1.18;100.00
58473;BME280;44775;51.564;5.460;2023-03-15T00:38:37;100928.72;;;1.12;100.00
58473;BME280;44775;51.564;5.460;2023-03-15T00:41:09;100935.78;;;1.12;100.00
58473;BME280;44775;51.564;5.460;2023-03-15T00:43:35;100929.63;;;1.11;100.00
58473;BME280;44775;51.564;5.460;2023-03-15T00:46:01;100934.47;;;1.17;100.00
58473;BME280;44775;51.564;5.460;2023-03-15T00:48:26;100923.22;;;1.15;100.00
58473;BME280;44775;51.564;5.460;2023-03-15T00:51:10;100921.31;;;1.17;100.00
58473;BME280;44775;51.564;5.460;2023-03-15T00:53:38;100930.91;;;1.18;100.00
58473;BME280;44775;51.564;5.460;2023-03-15T00:56:11;100931.84;;;1.17;100.00
58473;BME280;44775;51.564;5.460;2023-03-15T00:58:37;100930.06;;;1.18;100.00
58473;BME280;44775;51.564;5.460;2023-03-15T01:01:08;100935.22;;;1.20;100.00
58473;BME280;44775;51.564;5.460;2023-03-15T01:03:34;100925.44;;;1.22;100.00
58473;BME280;44775;51.564;5.460;2023-03-15T01:06:07;100928.72;;;1.25;100.00
58473;BME280;44775;51.564;5.460;2023-03-15T01:08:33;100948.59;;;1.29;100.00
58473;BME280;44775;51.564;5.460;2023-03-15T01:11:06;100945.34;;;1.38;100.00
58473;BME280;44775;51.564;5.460;2023-03-15T01:13:33;100941.31;;;1.33;100.00
58473;BME280;44775;51.564;5.460;2023-03-15T01:15:58;100942.91;;;1.35;100.00
58473;BME280;44775;51.564;5.460;2023-03-15T01:18:24;100943.41;;;1.40;100.00
58473;BME280;44775;51.564;5.460;2023-03-15T01:20:49;100943.00;;;1.47;100.00
58473;BME280;44775;51.564;5.460;2023-03-15T01:23:14;100953.63;;;1.45;100.00
58473;BME280;44775;51.564;5.460;2023-03-15T01:25:40;100949.31;;;1.44;100.00
58473;BME280;44775;51.564;5.460;2023-03-15T01:28:05;100963.94;;;1.48;100.00
58473;BME280;44775;51.564;5.460;2023-03-15T01:30:31;100958.47;;;1.51;100.00
58473;BME280;44775;51.564;5.460;2023-03-15T01:32:56;100957.63;;;1.51;100.00
58473;BME280;44775;51.564;5.460;2023-03-15T01:35:21;100960.66;;;1.57;100.00
58473;BME280;44775;51.564;5.460;2023-03-15T01:37:50;100961.28;;;1.61;100.00
58473;BME280;44775;51.564;5.460;2023-03-15T01:40:16;100956.16;;;1.59;100.00
58473;BME280;44775;51.564;5.460;2023-03-15T01:48:23;100970.03;;;1.74;100.00
58473;BME280;44775;51.564;5.460;2023-03-15T01:50:50;100966.75;;;1.71;100.00
58473;BME280;44775;51.564;5.460;2023-03-15T01:53:21;100965.72;;;1.73;100.00
58473;BME280;44775;51.564;5.460;2023-03-15T01:55:47;100980.88;;;1.82;100.00
58473;BME280;44775;51.564;5.460;2023-03-15T01:58:13;100985.81;;;1.74;100.00
58473;BME280;44775;51.564;5.460;2023-03-15T02:00:39;100992.47;;;1.80;100.00
58473;BME280;44775;51.564;5.460;2023-03-15T02:03:11;100991.41;;;1.82;100.00
58473;BME280;44775;51.564;5.460;2023-03-15T02:05:54;100998.75;;;1.90;100.00
58473;BME280;44775;51.564;5.460;2023-03-15T02:08:21;100995.16;;;1.91;100.00
58473;BME280;44775;51.564;5.460;2023-03-15T02:10:50;100996.59;;;2.08;100.00
58473;BME280;44775;51.564;5.460;2023-03-15T02:13:20;101003.69;;;1.95;100.00
58473;BME280;44775;51.564;5.460;2023-03-15T02:15:49;101019.41;;;1.96;100.00
58473;BME280;44775;51.564;5.460;2023-03-15T02:18:18;101011.09;;;1.89;100.00
58473;BME280;44775;51.564;5.460;2023-03-15T02:21:22;101021.19;;;1.96;100.00
58473;BME280;44775;51.564;5.460;2023-03-15T02:24:29;101024.50;;;1.86;100.00
58473;BME280;44775;51.564;5.460;2023-03-15T02:26:58;101027.66;;;1.79;100.00
58473;BME280;44775;51.564;5.460;2023-03-15T02:29:25;101022.22;;;1.69;100.00
58473;BME280;44775;51.564;5.460;2023-03-15T02:31:52;101020.28;;;1.71;100.00
58473;BME280;44775;51.564;5.460;2023-03-15T02:34:18;101018.28;;;1.62;100.00
58473;BME280;44775;51.564;5.460;2023-03-15T02:36:44;101027.25;;;1.59;100.00
58473;BME280;44775;51.564;5.460;2023-03-15T02:39:18;101015.97;;;1.57;100.00
58473;BME280;44775;51.564;5.460;2023-03-15T02:41:47;101005.34;;;1.59;100.00
58473;BME280;44775;51.564;5.460;2023-03-15T02:44:22;101010.09;;;1.54;100.00
58473;BME280;44775;51.564;5.460;2023-03-15T02:46:50;101021.66;;;1.51;100.00
58473;BME280;44775;51.564;5.460;2023-03-15T02:49:17;101019.03;;;1.51;100.00
58473;BME280;44775;51.564;5.460;2023-03-15T02:51:45;101022.94;;;1.58;100.00
58473;BME280;44775;51.564;5.460;2023-03-15T02:54:10;101021.25;;;1.57;100.00
58473;BME280;44775;51.564;5.460;2023-03-15T02:56:36;101015.69;;;1.49;100.00
58473;BME280;44775;51.564;5.460;2023-03-15T02:59:01;101023.47;;;1.51;100.00
58473;BME280;44775;51.564;5.460;2023-03-15T03:01:26;101022.75;;;1.49;100.00
58473;BME280;44775;51.564;5.460;2023-03-15T03:03:52;101036.97;;;1.46;100.00
58473;BME280;44775;51.564;5.460;2023-03-15T03:06:17;101038.13;;;1.42;100.00
58473;BME280;44775;51.564;5.460;2023-03-15T03:08:43;101039.81;;;1.43;100.00
58473;BME280;44775;51.564;5.460;2023-03-15T03:11:13;101053.41;;;1.50;100.00
58473;BME280;44775;51.564;5.460;2023-03-15T03:13:39;101056.13;;;1.48;100.00
58473;BME280;44775;51.564;5.460;2023-03-15T03:16:05;101060.47;;;1.49;100.00
58473;BME280;44775;51.564;5.460;2023-03-15T03:18:31;101071.91;;;1.48;100.00
58473;BME280;44775;51.564;5.460;2023-03-15T03:21:01;101073.63;;;1.49;100.00
58473;BME280;44775;51.564;5.460;2023-03-15T03:23:29;101070.78;;;1.39;100.00
58473;BME280;44775;51.564;5.460;2023-03-15T03:25:56;101083.72;;;1.30;100.00
58473;BME280;44775;51.564;5.460;2023-03-15T03:28:23;101085.59;;;1.28;100.00
58473;BME280;44775;51.564;5.460;2023-03-15T03:30:49;101083.03;;;1.13;100.00
58473;BME280;44775;51.564;5.460;2023-03-15T03:33:15;101092.50;;;1.03;100.00
58473;BME280;44775;51.564;5.460;2023-03-15T03:35:41;101101.94;;;0.93;100.00
58473;BME280;44775;51.564;5.460;2023-03-15T03:38:07;101093.06;;;0.81;100.00
58473;BME280;44775;51.564;5.460;2023-03-15T03:40:33;101097.56;;;0.79;100.00
58473;BME280;44775;51.564;5.460;2023-03-15T03:42:58;101098.16;;;0.70;100.00
58473;BME280;44775;51.564;5.460;2023-03-15T03:45:23;101104.56;;;0.66;100.00
58473;BME280;44775;51.564;5.460;2023-03-15T03:47:48;101107.50;;;0.61;100.00
58473;BME280;44775;51.564;5.460;2023-03-15T03:50:16;101117.84;;;0.50;100.00
58473;BME280;44775;51.564;5.460;2023-03-15T03:52:41;101120.94;;;0.57;100.00
58473;BME280;44775;51.564;5.460;2023-03-15T03:55:08;101115.81;;;0.41;100.00
58473;BME280;44775;51.564;5.460;2023-03-15T03:57:34;101122.38;;;0.34;100.00
58473;BME280;44775;51.564;5.460;2023-03-15T03:59:59;101117.91;;;0.21;100.00
58473;BME280;44775;51.564;5.460;2023-03-15T04:02:24;101119.03;;;0.17;100.00
58473;BME280;44775;51.564;5.460;2023-03-15T04:04:49;101128.03;;;0.13;100.00
58473;BME280;44775;51.564;5.460;2023-03-15T04:07:15;101132.09;;;0.05;100.00
58473;BME280;44775;51.564;5.460;2023-03-15T04:09:41;101136.75;;;-0.01;100.00
58473;BME280;44775;51.564;5.460;2023-03-15T04:12:07;101136.28;;;-0.07;100.00
58473;BME280;44775;51.564;5.460;2023-03-15T04:14:32;101142.13;;;-0.16;100.00
58473;BME280;44775;51.564;5.460;2023-03-15T04:16:57;101154.47;;;-0.18;100.00
58473;BME280;44775;51.564;5.460;2023-03-15T04:19:23;101151.56;;;-0.28;100.00
58473;BME280;44775;51.564;5.460;2023-03-15T04:21:48;101166.38;;;-0.27;100.00
58473;BME280;44775;51.564;5.460;2023-03-15T04:24:13;101155.41;;;-0.34;100.00
58473;BME280;44775;51.564;5.460;2023-03-15T04:26:39;101164.38;;;-0.38;100.00
58473;BME280;44775;51.564;5.460;2023-03-15T04:29:06;101170.69;;;-0.40;100.00
58473;BME280;44775;51.564;5.460;2023-03-15T04:31:31;101178.84;;;-0.31;100.00
58473;BME280;44775;51.564;5.460;2023-03-15T04:34:02;101176.69;;;-0.38;100.00
58473;BME280;44775;51.564;5.460;2023-03-15T04:36:28;101177.78;;;-0.42;100.00
58473;BME280;44775;51.564;5.460;2023-03-15T04:38:53;101183.06;;;-0.42;100.00
58473;BME280;44775;51.564;5.460;2023-03-15T04:41:29;101183.22;;;-0.45;100.00
58473;BME280;44775;51.564;5.460;2023-03-15T04:43:55;101187.63;;;-0.46;100.00
58473;BME280;44775;51.564;5.460;2023-03-15T04:46:20;101184.25;;;-0.48;100.00
58473;BME280;44775;51.564;5.460;2023-03-15T04:48:45;101185.53;;;-0.55;100.00
58473;BME280;44775;51.564;5.460;2023-03-15T04:51:10;101190.34;;;-0.48;100.00
58473;BME280;44775;51.564;5.460;2023-03-15T04:53:36;101186.31;;;-0.53;100.00
58473;BME280;44775;51.564;5.460;2023-03-15T04:56:03;101195.19;;;-0.56;100.00
58473;BME280;44775;51.564;5.460;2023-03-15T04:58:28;101192.47;;;-0.54;100.00
58473;BME280;44775;51.564;5.460;2023-03-15T05:00:53;101199.84;;;-0.61;100.00
58473;BME280;44775;51.564;5.460;2023-03-15T05:03:19;101205.97;;;-0.60;100.00
58473;BME280;44775;51.564;5.460;2023-03-15T05:05:44;101206.31;;;-0.66;100.00
58473;BME280;44775;51.564;5.460;2023-03-15T05:08:10;101209.88;;;-0.67;100.00
58473;BME280;44775;51.564;5.460;2023-03-15T05:10:35;101219.34;;;-0.65;100.00
58473;BME280;44775;51.564;5.460;2023-03-15T05:13:01;101218.59;;;-0.67;100.00
58473;BME280;44775;51.564;5.460;2023-03-15T05:15:26;101217.00;;;-0.69;100.00
58473;BME280;44775;51.564;5.460;2023-03-15T05:17:51;101221.13;;;-0.65;100.00
58473;BME280;44775;51.564;5.460;2023-03-15T05:20:19;101224.69;;;-0.66;100.00
58473;BME280;44775;51.564;5.460;2023-03-15T05:22:45;101227.75;;;-0.74;100.00
58473;BME280;44775;51.564;5.460;2023-03-15T05:25:10;101228.16;;;-0.82;100.00
58473;BME280;44775;51.564;5.460;2023-03-15T05:27:36;101233.69;;;-0.86;100.00
58473;BME280;44775;51.564;5.460;2023-03-15T05:30:03;101228.78;;;-0.92;100.00
58473;BME280;44775;51.564;5.460;2023-03-15T05:32:30;101234.13;;;-0.94;100.00
58473;BME280;44775;51.564;5.460;2023-03-15T05:35:02;101232.56;;;-0.98;100.00
58473;BME280;44775;51.564;5.460;2023-03-15T05:37:28;101235.03;;;-0.95;100.00
58473;BME280;44775;51.564;5.460;2023-03-15T05:39:54;101237.81;;;-0.98;100.00
58473;BME280;44775;51.564;5.460;2023-03-15T05:42:19;101241.47;;;-1.01;100.00
58473;BME280;44775;51.564;5.460;2023-03-15T05:44:53;101241.72;;;-1.05;100.00
58473;BME280;44775;51.564;5.460;2023-03-15T05:47:19;101244.34;;;-1.05;100.00
58473;BME280;44775;51.564;5.460;2023-03-15T05:49:45;101247.31;;;-0.96;100.00
58473;BME280;44775;51.564;5.460;2023-03-15T05:52:10;101254.44;;;-0.98;100.00
58473;BME280;44775;51.564;5.460;2023-03-15T05:54:35;101250.59;;;-0.92;100.00
58473;BME280;44775;51.564;5.460;2023-03-15T05:57:01;101248.06;;;-0.93;100.00
58473;BME280;44775;51.564;5.460;2023-03-15T05:59:26;101260.84;;;-0.87;100.00
58473;BME280;44775;51.564;5.460;2023-03-15T06:01:51;101256.63;;;-0.90;100.00
58473;BME280;44775;51.564;5.460;2023-03-15T06:04:17;101262.03;;;-0.93;100.00
58473;BME280;44775;51.564;5.460;2023-03-15T06:06:42;101268.38;;;-0.97;100.00
58473;BME280;44775;51.564;5.460;2023-03-15T06:09:08;101276.75;;;-0.90;100.00
58473;BME280;44775;51.564;5.460;2023-03-15T06:11:33;101282.84;;;-0.90;100.00
58473;BME280;44775;51.564;5.460;2023-03-15T06:13:58;101292.19;;;-0.84;100.00
58473;BME280;44775;51.564;5.460;2023-03-15T06:16:23;101285.16;;;-0.84;100.00
58473;BME280;44775;51.564;5.460;2023-03-15T06:18:49;101293.69;;;-0.80;100.00
58473;BME280;44775;51.564;5.460;2023-03-15T06:21:15;101297.06;;;-0.78;100.00
58473;BME280;44775;51.564;5.460;2023-03-15T06:23:40;101294.19;;;-0.74;100.00
58473;BME280;44775;51.564;5.460;2023-03-15T06:26:05;101305.59;;;-0.75;100.00
58473;BME280;44775;51.564;5.460;2023-03-15T06:28:31;101303.84;;;-0.74;100.00
58473;BME280;44775;51.564;5.460;2023-03-15T06:30:56;101305.38;;;-0.70;100.00
58473;BME280;44775;51.564;5.460;2023-03-15T06:33:22;101321.78;;;-0.66;100.00
58473;BME280;44775;51.564;5.460;2023-03-15T06:35:48;101327.47;;;-0.58;100.00
58473;BME280;44775;51.564;5.460;2023-03-15T06:38:14;101334.66;;;-0.46;100.00
58473;BME280;44775;51.564;5.460;2023-03-15T06:40:39;101333.09;;;-0.34;100.00
58473;BME280;44775;51.564;5.460;2023-03-15T06:43:04;101338.44;;;-0.20;100.00
58473;BME280;44775;51.564;5.460;2023-03-15T06:45:31;101349.06;;;-0.07;100.00
58473;BME280;44775;51.564;5.460;2023-03-15T06:47:57;101345.75;;;0.05;100.00
58473;BME280;44775;51.564;5.460;2023-03-15T06:50:22;101359.13;;;0.16;100.00
58473;BME280;44775;51.564;5.460;2023-03-15T06:52:48;101359.25;;;0.29;100.00
58473;BME280;44775;51.564;5.460;2023-03-15T06:55:13;101368.41;;;0.38;100.00
58473;BME280;44775;51.564;5.460;2023-03-15T06:57:42;101375.81;;;0.45;100.00
58473;BME280;44775;51.564;5.460;2023-03-15T07:00:08;101365.47;;;0.42;100.00
58473;BME280;44775;51.564;5.460;2023-03-15T07:02:35;101376.09;;;0.41;100.00
58473;BME280;44775;51.564;5.460;2023-03-15T07:05:04;101377.00;;;0.40;100.00
58473;BME280;44775;51.564;5.460;2023-03-15T07:07:30;101381.44;;;0.39;100.00
58473;BME280;44775;51.564;5.460;2023-03-15T07:09:55;101384.25;;;0.36;100.00
58473;BME280;44775;51.564;5.460;2023-03-15T07:12:20;101393.22;;;0.48;100.00
58473;BME280;44775;51.564;5.460;2023-03-15T07:14:46;101397.34;;;0.52;100.00
58473;BME280;44775;51.564;5.460;2023-03-15T07:17:11;101395.56;;;0.67;100.00
58473;BME280;44775;51.564;5.460;2023-03-15T07:19:37;101416.56;;;0.83;100.00
58473;BME280;44775;51.564;5.460;2023-03-15T07:22:02;101416.03;;;1.06;100.00
58473;BME280;44775;51.564;5.460;2023-03-15T07:24:28;101420.44;;;1.20;100.00
58473;BME280;44775;51.564;5.460;2023-03-15T07:26:54;101414.69;;;1.42;100.00
58473;BME280;44775;51.564;5.460;2023-03-15T07:29:21;101418.06;;;1.44;100.00
58473;BME280;44775;51.564;5.460;2023-03-15T07:31:48;101424.63;;;1.51;100.00
58473;BME280;44775;51.564;5.460;2023-03-15T07:34:13;101431.97;;;1.60;100.00
58473;BME280;44775;51.564;5.460;2023-03-15T07:36:38;101429.50;;;1.72;100.00
58473;BME280;44775;51.564;5.460;2023-03-15T07:39:04;101433.66;;;1.76;100.00
58473;BME280;44775;51.564;5.460;2023-03-15T07:41:29;101443.59;;;1.85;100.00
58473;BME280;44775;51.564;5.460;2023-03-15T07:43:55;101443.00;;;1.94;100.00
58473;BME280;44775;51.564;5.460;2023-03-15T07:46:20;101450.97;;;2.07;100.00
58473;BME280;44775;51.564;5.460;2023-03-15T07:48:46;101442.75;;;2.11;100.00
58473;BME280;44775;51.564;5.460;2023-03-15T07:51:11;101452.84;;;2.32;100.00
58473;BME280;44775;51.564;5.460;2023-03-15T07:53:37;101452.09;;;2.57;100.00
58473;BME280;44775;51.564;5.460;2023-03-15T07:56:02;101455.31;;;3.13;100.00
58473;BME280;44775;51.564;5.460;2023-03-15T07:58:28;101460.59;;;3.51;100.00
58473;BME280;44775;51.564;5.460;2023-03-15T08:00:54;101466.47;;;3.68;100.00
58473;BME280;44775;51.564;5.460;2023-03-15T08:03:20;101471.97;;;4.01;100.00
58473;BME280;44775;51.564;5.460;2023-03-15T08:05:46;101479.44;;;4.20;100.00
58473;BME280;44775;51.564;5.460;2023-03-15T08:08:11;101480.78;;;4.85;100.00
58473;BME280;44775;51.564;5.460;2023-03-15T08:10:37;101494.59;;;5.24;100.00
58473;BME280;44775;51.564;5.460;2023-03-15T08:13:02;101497.06;;;5.61;100.00
58473;BME280;44775;51.564;5.460;2023-03-15T08:15:28;101518.41;;;6.04;100.00
58473;BME280;44775;51.564;5.460;2023-03-15T08:17:53;101523.84;;;6.46;100.00
58473;BME280;44775;51.564;5.460;2023-03-15T08:20:19;101522.31;;;6.32;100.00
58473;BME280;44775;51.564;5.460;2023-03-15T08:22:48;101522.25;;;6.55;100.00
58473;BME280;44775;51.564;5.460;2023-03-15T08:25:17;101531.41;;;6.62;100.00
58473;BME280;44775;51.564;5.460;2023-03-15T08:27:43;101530.16;;;6.98;100.00
58473;BME280;44775;51.564;5.460;2023-03-15T08:30:12;101535.50;;;7.19;100.00
58473;BME280;44775;51.564;5.460;2023-03-15T08:32:39;101538.50;;;7.36;100.00
58473;BME280;44775;51.564;5.460;2023-03-15T08:35:06;101541.66;;;7.71;97.10
58473;BME280;44775;51.564;5.460;2023-03-15T08:37:32;101550.63;;;8.11;95.39
58473;BME280;44775;51.564;5.460;2023-03-15T08:39:57;101560.16;;;8.13;91.69
58473;BME280;44775;51.564;5.460;2023-03-15T08:42:28;101553.38;;;8.40;91.70
58473;BME280;44775;51.564;5.460;2023-03-15T08:44:54;101562.81;;;8.54;89.19
58473;BME280;44775;51.564;5.460;2023-03-15T08:47:23;101553.72;;;8.56;87.61
58473;BME280;44775;51.564;5.460;2023-03-15T08:49:49;101563.00;;;8.71;86.85
58473;BME280;44775;51.564;5.460;2023-03-15T08:52:17;101561.56;;;8.58;85.38
58473;BME280;44775;51.564;5.460;2023-03-15T08:54:43;101568.44;;;8.60;86.12
58473;BME280;44775;51.564;5.460;2023-03-15T08:57:08;101566.75;;;8.59;84.31
58473;BME280;44775;51.564;5.460;2023-03-15T08:59:35;101574.63;;;8.80;82.32
58473;BME280;44775;51.564;5.460;2023-03-15T09:02:00;101570.13;;;8.51;82.23
58473;BME280;44775;51.564;5.460;2023-03-15T09:04:26;101574.75;;;8.69;84.22
58473;BME280;44775;51.564;5.460;2023-03-15T09:06:51;101575.03;;;8.66;82.12
58473;BME280;44775;51.564;5.460;2023-03-15T09:09:17;101578.13;;;9.00;82.86
58473;BME280;44775;51.564;5.460;2023-03-15T09:11:43;101583.28;;;9.60;84.29
58473;BME280;44775;51.564;5.460;2023-03-15T09:14:08;101580.09;;;9.84;80.27
58473;BME280;44775;51.564;5.460;2023-03-15T09:16:33;101583.03;;;9.90;80.21
58473;BME280;44775;51.564;5.460;2023-03-15T09:18:58;101581.66;;;10.14;77.98
58473;BME280;44775;51.564;5.460;2023-03-15T09:21:24;101574.81;;;10.67;76.06
58473;BME280;44775;51.564;5.460;2023-03-15T09:23:49;101584.09;;;10.62;72.05
58473;BME280;44775;51.564;5.460;2023-03-15T09:26:14;101579.44;;;10.64;70.63
58473;BME280;44775;51.564;5.460;2023-03-15T09:28:40;101584.97;;;10.81;69.96
58473;BME280;44775;51.564;5.460;2023-03-15T09:31:05;101590.84;;;10.67;66.08
58473;BME280;44775;51.564;5.460;2023-03-15T09:33:31;101588.34;;;10.00;66.68
58473;BME280;44775;51.564;5.460;2023-03-15T09:35:57;101585.38;;;10.03;72.28
58473;BME280;44775;51.564;5.460;2023-03-15T09:38:25;101584.91;;;9.70;69.44
58473;BME280;44775;51.564;5.460;2023-03-15T09:40:55;101588.88;;;9.66;72.04
58473;BME280;44775;51.564;5.460;2023-03-15T09:46:19;101587.63;;;9.51;67.59
58473;BME280;44775;51.564;5.460;2023-03-15T09:49:08;101591.66;;;10.12;72.47
58473;BME280;44775;51.564;5.460;2023-03-15T09:51:57;101586.19;;;10.13;68.06
58473;BME280;44775;51.564;5.460;2023-03-15T09:54:42;101588.41;;;10.18;72.49
58473;BME280;44775;51.564;5.460;2023-03-15T09:57:18;101592.63;;;10.48;67.82
58473;BME280;44775;51.564;5.460;2023-03-15T09:59:49;101601.47;;;10.94;70.96
58473;BME280;44775;51.564;5.460;2023-03-15T10:02:36;101588.91;;;11.13;64.04
58473;BME280;44775;51.564;5.460;2023-03-15T10:05:07;101599.31;;;11.16;64.78
58473;BME280;44775;51.564;5.460;2023-03-15T10:07:36;101601.28;;;10.32;59.44
58473;BME280;44775;51.564;5.460;2023-03-15T10:10:01;101595.81;;;10.24;61.32
58473;BME280;44775;51.564;5.460;2023-03-15T10:12:33;101584.97;;;9.98;73.87
58473;BME280;44775;51.564;5.460;2023-03-15T10:15:17;101591.03;;;10.55;62.47
58473;BME280;44775;51.564;5.460;2023-03-15T10:18:05;101597.41;;;11.26;60.61
58473;BME280;44775;51.564;5.460;2023-03-15T10:20:40;101599.06;;;11.71;59.30
58473;BME280;44775;51.564;5.460;2023-03-15T10:23:20;101600.81;;;12.06;57.65
58473;BME280;44775;51.564;5.460;2023-03-15T10:25:50;101608.66;;;12.08;52.55
58473;BME280;44775;51.564;5.460;2023-03-15T10:28:27;101601.63;;;12.41;58.26
58473;BME280;44775;51.564;5.460;2023-03-15T10:30:57;101605.66;;;12.02;51.04
58473;BME280;44775;51.564;5.460;2023-03-15T10:33:37;101602.03;;;11.86;57.09
58473;BME280;44775;51.564;5.460;2023-03-15T10:36:16;101598.41;;;12.29;52.22
58473;BME280;44775;51.564;5.460;2023-03-15T10:38:42;101605.28;;;13.15;51.59
58473;BME280;44775;51.564;5.460;2023-03-15T10:41:10;101599.88;;;12.82;51.65
58473;BME280;44775;51.564;5.460;2023-03-15T10:43:36;101608.00;;;13.39;53.95
58473;BME280;44775;51.564;5.460;2023-03-15T10:46:10;101616.53;;;13.59;46.15
58473;BME280;44775;51.564;5.460;2023-03-15T10:54:10;101628.47;;;13.32;45.94
58473;BME280;44775;51.564;5.460;2023-03-15T10:56:45;101630.75;;;12.36;45.47
58473;BME280;44775;51.564;5.460;2023-03-15T10:59:20;101631.00;;;12.16;50.23
58473;BME280;44775;51.564;5.460;2023-03-15T11:01:48;101633.31;;;12.45;49.62
58473;BME280;44775;51.564;5.460;2023-03-15T11:04:23;101644.78;;;11.95;43.19
58473;BME280;44775;51.564;5.460;2023-03-15T11:09:23;101643.84;;;13.06;42.95
58473;BME280;44775;51.564;5.460;2023-03-15T11:12:00;101634.69;;;13.33;43.18
58473;BME280;44775;51.564;5.460;2023-03-15T11:14:39;101644.09;;;13.37;40.41
58473;BME280;44775;51.564;5.460;2023-03-15T11:17:06;101642.56;;;13.67;40.80
58473;BME280;44775;51.564;5.460;2023-03-15T11:19:36;101646.47;;;14.68;43.99
58473;BME280;44775;51.564;5.460;2023-03-15T11:22:03;101655.75;;;14.17;42.27
58473;BME280;44775;51.564;5.460;2023-03-15T11:24:30;101657.16;;;14.45;42.29
58473;BME280;44775;51.564;5.460;2023-03-15T11:26:59;101661.63;;;14.69;36.82
58473;BME280;44775;51.564;5.460;2023-03-15T11:29:26;101662.34;;;15.40;44.32
58473;BME280;44775;51.564;5.460;2023-03-15T11:31:54;101661.03;;;15.13;39.41
58473;BME280;44775;51.564;5.460;2023-03-15T11:36:55;101670.84;;;15.05;42.29
58473;BME280;44775;51.564;5.460;2023-03-15T11:39:34;101656.31;;;14.44;39.70
58473;BME280;44775;51.564;5.460;2023-03-15T11:42:05;101652.88;;;14.19;41.97
58473;BME280;44775;51.564;5.460;2023-03-15T11:44:38;101648.47;;;14.74;38.13
58473;BME280;44775;51.564;5.460;2023-03-15T11:49:56;101647.56;;;14.50;41.08
58473;BME280;44775;51.564;5.460;2023-03-15T11:52:23;101651.44;;;14.39;41.63
58473;BME280;44775;51.564;5.460;2023-03-15T11:54:53;101644.56;;;13.81;36.79
58473;BME280;44775;51.564;5.460;2023-03-15T12:00:15;101641.84;;;12.99;42.50
58473;BME280;44775;51.564;5.460;2023-03-15T12:02:55;101634.91;;;11.96;42.57
58473;BME280;44775;51.564;5.460;2023-03-15T12:05:49;101630.13;;;11.38;44.17
58473;BME280;44775;51.564;5.460;2023-03-15T12:08:22;101628.31;;;10.29;45.35
58473;BME280;44775;51.564;5.460;2023-03-15T12:10:51;101632.34;;;9.96;48.37
58473;BME280;44775;51.564;5.460;2023-03-15T12:13:26;101634.03;;;9.97;48.14
58473;BME280;44775;51.564;5.460;2023-03-15T12:15:52;101623.09;;;9.90;48.95
58473;BME280;44775;51.564;5.460;2023-03-15T12:18:41;101628.88;;;9.86;49.13
58473;BME280;44775;51.564;5.460;2023-03-15T12:23:37;101626.53;;;9.63;50.25
58473;BME280;44775;51.564;5.460;2023-03-15T12:28:40;101622.75;;;9.27;51.43
58473;BME280;44775;51.564;5.460;2023-03-15T12:31:11;101622.38;;;9.88;56.23
58473;BME280;44775;51.564;5.460;2023-03-15T12:33:53;101633.97;;;10.72;50.12
58473;BME280;44775;51.564;5.460;2023-03-15T12:36:33;101627.28;;;11.39;46.50
58473;BME280;44775;51.564;5.460;2023-03-15T12:41:44;101633.47;;;11.40;44.25
58473;BME280;44775;51.564;5.460;2023-03-15T12:44:40;101627.88;;;11.51;48.02
58473;BME280;44775;51.564;5.460;2023-03-15T12:47:11;101626.94;;;11.60;43.92
58473;BME280;44775;51.564;5.460;2023-03-15T12:49:42;101628.50;;;11.27;44.31
58473;BME280;44775;51.564;5.460;2023-03-15T12:54:43;101633.78;;;11.19;45.64
58473;BME280;44775;51.564;5.460;2023-03-15T12:57:18;101637.91;;;10.95;51.09
58473;BME280;44775;51.564;5.460;2023-03-15T13:02:29;101628.94;;;11.58;48.33
58473;BME280;44775;51.564;5.460;2023-03-15T13:10:38;101635.94;;;12.03;45.03
58473;BME280;44775;51.564;5.460;2023-03-15T13:13:12;101629.81;;;12.53;42.31
58473;BME280;44775;51.564;5.460;2023-03-15T13:16:03;101628.31;;;13.34;45.47
58473;BME280;44775;51.564;5.460;2023-03-15T13:18:40;101627.44;;;13.74;38.88
58473;BME280;44775;51.564;5.460;2023-03-15T13:21:16;101629.06;;;14.08;39.41
58473;BME280;44775;51.564;5.460;2023-03-15T13:23:48;101630.09;;;14.85;42.17
58473;BME280;44775;51.564;5.460;2023-03-15T13:26:30;101634.66;;;14.77;38.98
58473;BME280;44775;51.564;5.460;2023-03-15T13:29:02;101632.59;;;14.48;35.91
58473;BME280;44775;51.564;5.460;2023-03-15T13:31:30;101624.91;;;13.07;37.48
58473;BME280;44775;51.564;5.460;2023-03-15T13:34:03;101627.69;;;12.73;38.23
58473;BME280;44775;51.564;5.460;2023-03-15T13:36:46;101626.81;;;12.56;37.98
58473;BME280;44775;51.564;5.460;2023-03-15T13:39:20;101620.25;;;12.59;38.74